Terminal Aerodrome Forecast
Issued by NWS El Paso, TX

Home | Current Version | Previous Version | Text Only | Print | Product List | Glossary On
Versions: 1 2 3 4 5 6 7 8 9 10 11 12 13 14 15
000
FTUS44 KEPZ 020500
TAFELP
TAF
KELP 020526Z 0206/0306 10008KT P6SM VCSH FEW060 BKN120 BKN220
     FM021200 10010KT P6SM VCSH BKN060 BKN100 OVC200
     FM021800 23012G22KT P6SM -SHRA BKN050 OVC100 PROB30 0300/0306
      24014G24KT 6SM -SHRA BKN030 OVC080=

USA.gov is the U.S. government's official web portal to all federal, state and local government web resources and services.